Accueil
METAR-TAF:

METAR-TAF

Aéroports :

Tongatapu, Tonga

Aéroport international Fuaʻamotu

latitude: 21-14S, longitude: 175-09W, altitude: 38 m

Observation

Le bulletin a été fait il y a 8 minutes, à 21:00 UTC
Vent calme
Température 27°C
Humidité 74%
Pression 1015 hPa
Visibilité 10 km ou plus
Quelques nuages à une hauteur de 1000 ft
Quelques nuages à une hauteur de 1700 ft, Cumulus congestus.
Nuages fragmentés à une hauteur de 30000 ft

METAR: NFTF 242100Z 00000KT 9999 FEW010 FEW017TCU BKN300 27/22 Q1015

Heure: 10:08 (21:08 UTC)

Prévision

Le bulletin a été fait il y a 3 heures et 40 minutes, à 17:28 UTC
Prévision valable du 24 à 18 UTC au 25 à 18 UTC
Vent 6 kt de sud-est
Visibilité 10 km ou plus
Quelques nuages à une hauteur de 1600 ft
Nuages épars à une hauteur de 10000 ft

TAF: NFTF 241728Z 2418/2518 13006KT 9999 FEW016 SCT100

Observations et prévisions météorologiques de plus de 4000 aéroports (messages METAR et TAF).

Les stations disponibles sont représentées par des disques jaunes et rouges sur la carte.

Passer la souris dessus pour voir le nom de la station.

Cliquer dessus pour voir les observations et prévisions météorologiques.

Pour changer de carte: cliquez sur les boutons verts avec une croix noire pour zoomer, sur le bouton vert avec un tiret pour effectuer un zoom arrière, ou sur les flèches vertes pour les cartes adjacentes.


METAR-TAF: